createdAt,value
2023-05-17T00:00:27.561Z,1002.81
2023-05-17T00:01:00.433Z,1002.64
2023-05-17T00:01:31.466Z,1002.64
2023-05-17T00:02:04.332Z,1002.54
2023-05-17T00:02:34.541Z,1002.54
2023-05-17T00:03:08.404Z,1002.54
2023-05-17T00:03:34.468Z,1002.64
2023-05-17T00:03:55.519Z,1002.64
2023-05-17T00:04:27.573Z,1002.64
2023-05-17T00:04:59.873Z,1002.44
2023-05-17T00:05:31.463Z,1002.44
2023-05-17T00:06:03.526Z,1002.54
2023-05-17T00:06:34.545Z,1002.54
2023-05-17T00:07:07.519Z,1002.54
2023-05-17T00:07:34.448Z,1002.54
2023-05-17T00:07:55.520Z,1002.54
2023-05-17T00:08:28.349Z,1002.54
2023-05-17T00:08:59.875Z,1002.54
2023-05-17T00:09:32.339Z,1002.54
2023-05-17T00:10:03.546Z,1002.54
2023-05-17T00:10:35.993Z,1002.54
2023-05-17T00:11:07.535Z,1002.54
2023-05-17T00:11:34.671Z,1002.44
2023-05-17T00:11:55.586Z,1002.44
2023-05-17T00:12:27.515Z,1002.44
2023-05-17T00:13:00.475Z,1002.23
2023-05-17T00:13:31.829Z,1002.23
2023-05-17T00:14:04.396Z,1002.54
2023-05-17T00:14:35.924Z,1002.64
2023-05-17T00:15:08.304Z,1002.64
2023-05-17T00:15:34.520Z,1002.71
2023-05-17T00:15:55.536Z,1002.71
2023-05-17T00:16:27.540Z,1002.71
2023-05-17T00:16:59.801Z,1002.54
2023-05-17T00:17:31.557Z,1002.54
2023-05-17T00:18:03.632Z,1002.64
2023-05-17T00:18:34.633Z,1002.44
2023-05-17T00:18:51.994Z,1002.44
2023-05-17T00:19:24.535Z,1002.44
2023-05-17T00:19:41.807Z,1002.64
2023-05-17T00:20:11.909Z,1002.64
2023-05-17T00:20:34.482Z,1002.44
2023-05-17T00:20:59.810Z,1002.44
2023-05-17T00:21:32.299Z,1002.44
2023-05-17T00:22:03.480Z,1002.54
2023-05-17T00:22:35.753Z,1002.54
2023-05-17T00:23:07.484Z,1002.54
2023-05-17T00:23:34.650Z,1002.54
2023-05-17T00:23:55.569Z,1002.54
2023-05-17T00:24:27.509Z,1002.54
2023-05-17T00:25:00.643Z,1002.54
2023-05-17T00:25:31.553Z,1002.54
2023-05-17T00:26:04.408Z,1002.54
2023-05-17T00:26:35.423Z,1002.71
2023-05-17T00:27:08.517Z,1002.71
2023-05-17T00:27:34.460Z,1002.64
2023-05-17T00:27:56.061Z,1002.64
2023-05-17T00:28:27.577Z,1002.64
2023-05-17T00:28:59.964Z,1002.54
2023-05-17T00:29:31.455Z,1002.54
2023-05-17T00:30:03.683Z,1002.71
2023-05-17T00:30:34.653Z,1002.64
2023-05-17T00:31:06.879Z,1002.64
2023-05-17T00:31:39.966Z,1002.64
2023-05-17T00:32:12.053Z,1002.64
2023-05-17T00:32:34.498Z,1002.71
2023-05-17T00:32:59.932Z,1002.71
2023-05-17T00:33:31.465Z,1002.71
2023-05-17T00:34:05.310Z,1002.64
2023-05-17T00:34:34.530Z,1002.44
2023-05-17T00:35:08.388Z,1002.44
2023-05-17T00:35:34.496Z,1002.44
2023-05-17T00:35:55.601Z,1002.44
2023-05-17T00:36:27.482Z,1002.44
2023-05-17T00:36:59.924Z,1002.44
2023-05-17T00:37:31.489Z,1002.44
2023-05-17T00:38:03.448Z,1002.64
2023-05-17T00:38:34.510Z,1002.44
2023-05-17T00:39:07.476Z,1002.44
2023-05-17T00:39:34.538Z,1002.64
2023-05-17T00:39:55.619Z,1002.64
2023-05-17T00:40:30.192Z,1002.64
2023-05-17T00:40:59.932Z,1002.64
2023-05-17T00:41:32.326Z,1002.64
2023-05-17T00:42:03.501Z,1002.71
2023-05-17T00:42:35.604Z,1002.64
2023-05-17T00:43:07.590Z,1002.64
2023-05-17T00:43:34.481Z,1002.54
2023-05-17T00:43:55.597Z,1002.54
2023-05-17T00:44:27.436Z,1002.54
2023-05-17T00:45:00.961Z,1002.64
2023-05-17T00:45:31.435Z,1002.64
2023-05-17T00:46:04.372Z,1002.71
2023-05-17T00:46:34.487Z,1002.91
2023-05-17T00:47:08.499Z,1002.91
2023-05-17T00:47:34.555Z,1002.54
2023-05-17T00:47:56.419Z,1002.54
2023-05-17T00:48:27.569Z,1002.54
2023-05-17T00:48:59.813Z,1002.81
2023-05-17T00:49:31.482Z,1002.81
2023-05-17T00:50:09.634Z,1002.81
2023-05-17T00:50:20.379Z,1002.71
2023-05-17T00:50:51.459Z,1002.81
2023-05-17T00:51:24.256Z,1002.81
2023-05-17T00:51:41.527Z,1002.71
2023-05-17T00:52:11.855Z,1002.71
2023-05-17T00:52:34.755Z,1002.54
2023-05-17T00:52:59.792Z,1002.54
2023-05-17T00:53:32.939Z,1002.54
2023-05-17T00:54:03.431Z,1002.71
2023-05-17T00:54:36.717Z,1002.71
2023-05-17T00:55:07.467Z,1002.71
2023-05-17T00:55:34.515Z,1002.54
2023-05-17T00:55:55.588Z,1002.54
2023-05-17T00:56:27.472Z,1002.54
2023-05-17T00:57:00.331Z,1002.71
2023-05-17T00:57:31.503Z,1002.71
2023-05-17T00:58:04.398Z,1002.71
2023-05-17T00:58:34.474Z,1002.81
2023-05-17T00:59:08.344Z,1002.81
2023-05-17T00:59:34.509Z,1002.54
2023-05-17T00:59:55.617Z,1002.54
2023-05-17T01:00:27.558Z,1002.54
2023-05-17T01:00:59.824Z,1002.44
2023-05-17T01:01:31.541Z,1002.44
2023-05-17T01:02:03.456Z,1002.71
2023-05-17T01:02:34.619Z,1002.71
2023-05-17T01:03:07.692Z,1002.71
2023-05-17T01:03:34.787Z,1002.71
2023-05-17T01:03:55.748Z,1002.71
2023-05-17T01:04:28.571Z,1002.71
2023-05-17T01:04:59.976Z,1002.71
2023-05-17T01:05:32.389Z,1002.71
2023-05-17T01:06:03.413Z,1002.64
2023-05-17T01:06:36.437Z,1002.64
2023-05-17T01:07:07.489Z,1002.64
2023-05-17T01:07:34.514Z,1002.71
2023-05-17T01:07:57.015Z,1002.71
2023-05-17T01:08:27.554Z,1002.71
2023-05-17T01:09:00.315Z,1002.71
2023-05-17T01:09:31.502Z,1002.71
2023-05-17T01:10:04.424Z,1002.71
2023-05-17T01:10:34.564Z,1002.71
2023-05-17T01:11:08.606Z,1002.71
2023-05-17T01:11:34.566Z,1002.64
2023-05-17T01:11:55.616Z,1002.64
2023-05-17T01:12:27.415Z,1002.64
2023-05-17T01:13:05.548Z,1002.64
2023-05-17T01:13:16.330Z,1002.64
2023-05-17T01:13:34.527Z,1002.54
2023-05-17T01:14:03.435Z,1002.54
2023-05-17T01:14:34.548Z,1002.54
2023-05-17T01:15:08.530Z,1002.54
2023-05-17T01:15:34.586Z,1002.71
2023-05-17T01:15:55.484Z,1002.71
2023-05-17T01:16:28.384Z,1002.71
2023-05-17T01:16:59.889Z,1002.64
2023-05-17T01:17:31.522Z,1002.64
2023-05-17T01:18:04.485Z,1002.91
2023-05-17T01:18:34.807Z,1002.71
2023-05-17T01:19:08.435Z,1002.71
2023-05-17T01:19:34.973Z,1002.64
2023-05-17T01:19:55.595Z,1002.64
2023-05-17T01:20:27.530Z,1002.64
2023-05-17T01:20:59.837Z,1002.71
2023-05-17T01:21:31.533Z,1002.71
2023-05-17T01:22:03.426Z,1002.91
2023-05-17T01:22:34.518Z,1002.64
2023-05-17T01:23:07.462Z,1002.64
2023-05-17T01:23:34.530Z,1002.71
2023-05-17T01:23:55.527Z,1002.71
2023-05-17T01:24:28.387Z,1002.71
2023-05-17T01:24:59.752Z,1002.71
2023-05-17T01:25:32.309Z,1002.71
2023-05-17T01:26:03.483Z,1002.91
2023-05-17T01:26:36.474Z,1002.64
2023-05-17T01:27:07.551Z,1002.64
2023-05-17T01:27:34.561Z,1002.91
2023-05-17T01:27:55.479Z,1002.91
2023-05-17T01:28:28.024Z,1002.91
2023-05-17T01:29:00.336Z,1002.81
2023-05-17T01:29:31.477Z,1002.81
2023-05-17T01:30:04.467Z,1002.81
2023-05-17T01:30:35.052Z,1002.64
2023-05-17T01:31:09.317Z,1002.64
2023-05-17T01:31:34.867Z,1002.91
2023-05-17T01:31:55.620Z,1002.91
2023-05-17T01:32:27.492Z,1002.91
2023-05-17T01:32:59.576Z,1002.91
2023-05-17T01:33:31.630Z,1002.91
2023-05-17T01:34:03.526Z,1002.71
2023-05-17T01:34:35.445Z,1002.81
2023-05-17T01:34:51.516Z,1002.81
2023-05-17T01:35:24.317Z,1002.81
2023-05-17T01:35:41.850Z,1002.91
2023-05-17T01:36:11.827Z,1002.91
2023-05-17T01:36:34.575Z,1002.71
2023-05-17T01:36:59.794Z,1002.71
2023-05-17T01:37:32.316Z,1002.71
2023-05-17T01:38:03.389Z,1002.81
2023-05-17T01:38:36.224Z,1002.81
2023-05-17T01:39:07.459Z,1002.81
2023-05-17T01:39:34.512Z,1002.91
2023-05-17T01:39:55.434Z,1002.91
2023-05-17T01:40:27.451Z,1002.91
2023-05-17T01:41:00.340Z,1002.91
2023-05-17T01:41:31.505Z,1002.91
2023-05-17T01:42:04.310Z,1002.81
2023-05-17T01:42:34.633Z,1002.81
2023-05-17T01:43:08.347Z,1002.81
2023-05-17T01:43:34.565Z,1003.01
2023-05-17T01:43:55.494Z,1003.01
2023-05-17T01:44:27.392Z,1003.01
2023-05-17T01:44:59.834Z,1002.91
2023-05-17T01:45:31.475Z,1002.91
2023-05-17T01:46:03.431Z,1003.22
2023-05-17T01:46:34.605Z,1002.91
2023-05-17T01:47:07.442Z,1002.91
2023-05-17T01:47:34.645Z,1003.01
2023-05-17T01:47:57.188Z,1003.01
2023-05-17T01:48:28.350Z,1003.01
2023-05-17T01:48:59.822Z,1003.22
2023-05-17T01:49:32.413Z,1003.22
2023-05-17T01:50:03.518Z,1002.91
2023-05-17T01:50:35.748Z,1003.01
2023-05-17T01:51:07.500Z,1003.01
2023-05-17T01:51:34.515Z,1002.91
2023-05-17T01:51:55.380Z,1002.91
2023-05-17T01:52:27.419Z,1002.91
2023-05-17T01:53:00.429Z,1002.91
2023-05-17T01:53:31.526Z,1002.91
2023-05-17T01:54:04.314Z,1003.01
2023-05-17T01:54:34.515Z,1003.11
2023-05-17T01:55:08.316Z,1003.11
2023-05-17T01:55:35.090Z,1003.01
2023-05-17T01:55:55.427Z,1003.01
2023-05-17T01:56:27.406Z,1003.01
2023-05-17T01:56:59.681Z,1003.11
2023-05-17T01:57:31.436Z,1003.11
2023-05-17T01:58:03.416Z,1003.01
2023-05-17T01:58:34.465Z,1003.11
2023-05-17T01:59:07.393Z,1003.11
2023-05-17T01:59:34.554Z,1003.11
2023-05-17T01:59:55.668Z,1003.11
2023-05-17T02:00:28.324Z,1003.11
2023-05-17T02:00:59.900Z,1003.01
2023-05-17T02:01:32.349Z,1003.01
2023-05-17T02:02:03.488Z,1003.01
2023-05-17T02:02:36.228Z,1003.01
2023-05-17T02:03:07.386Z,1003.01
2023-05-17T02:03:34.535Z,1002.91
2023-05-17T02:03:55.438Z,1002.91
2023-05-17T02:04:27.383Z,1002.91
2023-05-17T02:05:00.538Z,1003.11
2023-05-17T02:05:31.417Z,1003.11
2023-05-17T02:06:04.223Z,1003.11
2023-05-17T02:06:34.513Z,1003.11
2023-05-17T02:06:51.554Z,1003.11
2023-05-17T02:07:23.772Z,1003.11
2023-05-17T02:07:40.695Z,1003.22
2023-05-17T02:08:12.377Z,1003.22
2023-05-17T02:08:34.494Z,1003.22
2023-05-17T02:08:59.737Z,1003.22
2023-05-17T02:09:31.392Z,1003.22
2023-05-17T02:10:03.411Z,1003.32
2023-05-17T02:10:34.775Z,1003.22
2023-05-17T02:10:51.257Z,1003.22
2023-05-17T02:11:24.326Z,1003.22
2023-05-17T02:11:42.566Z,1003.22
2023-05-17T02:12:11.829Z,1003.22
2023-05-17T02:12:34.539Z,1003.11
2023-05-17T02:12:59.748Z,1003.11
2023-05-17T02:13:32.373Z,1003.11
2023-05-17T02:14:03.425Z,1003.42
2023-05-17T02:14:36.990Z,1003.32
2023-05-17T02:15:07.457Z,1003.32
2023-05-17T02:15:35.010Z,1003.42
2023-05-17T02:15:55.391Z,1003.42
2023-05-17T02:16:27.364Z,1003.42
2023-05-17T02:17:00.346Z,1003.11
2023-05-17T02:17:31.435Z,1003.11
2023-05-17T02:18:04.394Z,1003.32
2023-05-17T02:18:34.732Z,1003.42
2023-05-17T02:18:51.607Z,1003.42
2023-05-17T02:19:23.719Z,1003.42
2023-05-17T02:19:40.580Z,1003.01
2023-05-17T02:20:12.395Z,1003.01
2023-05-17T02:20:34.479Z,1003.11
2023-05-17T02:20:59.797Z,1003.11
2023-05-17T02:21:31.391Z,1003.11
2023-05-17T02:22:04.398Z,1003.01
2023-05-17T02:22:34.575Z,1003.11
2023-05-17T02:22:51.370Z,1003.11
2023-05-17T02:23:24.368Z,1003.11
2023-05-17T02:23:41.558Z,1003.11
2023-05-17T02:24:12.059Z,1003.11
2023-05-17T02:24:34.491Z,1003.11
2023-05-17T02:24:59.768Z,1003.11
2023-05-17T02:25:32.386Z,1003.11
2023-05-17T02:26:03.378Z,1003.01
2023-05-17T02:26:36.829Z,1003.22
2023-05-17T02:27:07.380Z,1003.22
2023-05-17T02:27:34.734Z,1003.11
2023-05-17T02:27:56.255Z,1003.11
2023-05-17T02:28:27.456Z,1003.11
2023-05-17T02:29:00.479Z,1003.22
2023-05-17T02:29:31.390Z,1003.22
2023-05-17T02:30:04.638Z,1003.22
2023-05-17T02:30:35.067Z,1003.22
2023-05-17T02:31:08.330Z,1003.22
2023-05-17T02:31:34.477Z,1003.11
2023-05-17T02:31:55.393Z,1003.11
2023-05-17T02:32:27.510Z,1003.11
2023-05-17T02:32:59.957Z,1002.91
2023-05-17T02:33:31.442Z,1002.91
2023-05-17T02:34:03.417Z,1003.11
2023-05-17T02:34:34.653Z,1003.11
2023-05-17T02:35:07.425Z,1003.11
2023-05-17T02:35:34.468Z,1003.22
2023-05-17T02:35:55.413Z,1003.22
2023-05-17T02:36:28.294Z,1003.22
2023-05-17T02:36:59.789Z,1003.22
2023-05-17T02:37:32.306Z,1003.22
2023-05-17T02:38:03.396Z,1003.22
2023-05-17T02:38:36.273Z,1003.11
2023-05-17T02:39:07.424Z,1003.11
2023-05-17T02:39:35.216Z,1003.11
2023-05-17T02:39:55.361Z,1003.11
2023-05-17T02:40:27.462Z,1003.11
2023-05-17T02:41:00.369Z,1003.22
2023-05-17T02:41:31.413Z,1003.22
2023-05-17T02:42:04.266Z,1003.01
2023-05-17T02:42:34.516Z,1003.32
2023-05-17T02:42:51.381Z,1003.32
2023-05-17T02:43:23.774Z,1003.32
2023-05-17T02:43:40.664Z,1003.22
2023-05-17T02:44:12.573Z,1003.22
2023-05-17T02:44:35.153Z,1003.32
2023-05-17T02:44:59.745Z,1003.32
2023-05-17T02:45:31.410Z,1003.32
2023-05-17T02:46:03.390Z,1003.11
2023-05-17T02:46:35.796Z,1003.11
2023-05-17T02:47:07.424Z,1003.11
2023-05-17T02:47:35.064Z,1003.11
2023-05-17T02:47:55.459Z,1003.11
2023-05-17T02:48:28.275Z,1003.11
2023-05-17T02:48:59.802Z,1003.22
2023-05-17T02:49:32.442Z,1003.22
2023-05-17T02:50:03.600Z,1003.22
2023-05-17T02:50:35.513Z,1003.32
2023-05-17T02:51:07.507Z,1003.32
2023-05-17T02:51:34.455Z,1003.22
2023-05-17T02:51:55.387Z,1003.22
2023-05-17T02:52:27.410Z,1003.22
2023-05-17T02:53:00.357Z,1003.22
2023-05-17T02:53:31.329Z,1003.22
2023-05-17T02:54:04.389Z,1003.22
2023-05-17T02:54:35.835Z,1003.11
2023-05-17T02:55:08.386Z,1003.11
2023-05-17T02:55:35.075Z,1003.11
2023-05-17T02:55:55.391Z,1003.11
2023-05-17T02:56:27.458Z,1003.11
2023-05-17T02:57:00.216Z,1003.11
2023-05-17T02:57:31.930Z,1003.11
2023-05-17T02:58:03.402Z,1003.11
2023-05-17T02:58:34.463Z,1003.42
2023-05-17T02:58:51.388Z,1003.42
2023-05-17T02:59:24.370Z,1003.42
2023-05-17T02:59:43.040Z,1003.32
2023-05-17T03:00:11.856Z,1003.32
2023-05-17T03:00:34.510Z,1003.11
2023-05-17T03:00:59.409Z,1003.11
2023-05-17T03:01:32.482Z,1003.11
2023-05-17T03:02:03.379Z,1003.22
2023-05-17T03:02:36.618Z,1003.32
2023-05-17T03:03:07.420Z,1003.32
2023-05-17T03:03:34.705Z,1003.42
2023-05-17T03:03:55.616Z,1003.42
2023-05-17T03:04:27.462Z,1003.42
2023-05-17T03:05:00.588Z,1003.32
2023-05-17T03:05:31.447Z,1003.32
2023-05-17T03:06:04.190Z,1003.62
2023-05-17T03:06:34.556Z,1003.62
2023-05-17T03:06:51.367Z,1003.62
2023-05-17T03:07:23.453Z,1003.62
2023-05-17T03:07:40.591Z,1003.42
2023-05-17T03:08:12.374Z,1003.42
2023-05-17T03:08:34.546Z,1003.32
2023-05-17T03:08:59.883Z,1003.32
2023-05-17T03:09:31.460Z,1003.32
2023-05-17T03:10:03.496Z,1003.22
2023-05-17T03:10:34.594Z,1003.52
2023-05-17T03:10:51.078Z,1003.52
2023-05-17T03:11:24.483Z,1003.52
2023-05-17T03:11:41.859Z,1003.42
2023-05-17T03:12:11.796Z,1003.42
2023-05-17T03:12:35.077Z,1003.52
2023-05-17T03:12:59.978Z,1003.52
2023-05-17T03:13:32.481Z,1003.52
2023-05-17T03:14:04.762Z,1003.32
2023-05-17T03:14:35.829Z,1003.42
2023-05-17T03:15:07.531Z,1003.42
2023-05-17T03:15:34.895Z,1003.62
2023-05-17T03:15:55.378Z,1003.62
2023-05-17T03:16:27.495Z,1003.62
2023-05-17T03:17:00.547Z,1003.32
2023-05-17T03:17:31.474Z,1003.32
2023-05-17T03:18:04.226Z,1003.52
2023-05-17T03:18:34.847Z,1003.52
2023-05-17T03:18:51.561Z,1003.52
2023-05-17T03:19:23.578Z,1003.52
2023-05-17T03:19:40.606Z,1003.52
2023-05-17T03:20:14.044Z,1003.52
2023-05-17T03:20:35.061Z,1003.52
2023-05-17T03:20:59.503Z,1003.52
2023-05-17T03:21:31.343Z,1003.52
2023-05-17T03:22:03.348Z,1003.32
2023-05-17T03:22:35.389Z,1003.22
2023-05-17T03:23:07.422Z,1003.22
2023-05-17T03:23:34.479Z,1003.72
2023-05-17T03:23:55.394Z,1003.72
2023-05-17T03:24:28.250Z,1003.72
2023-05-17T03:24:59.384Z,1003.62
2023-05-17T03:25:32.264Z,1003.62
2023-05-17T03:26:03.372Z,1003.72
2023-05-17T03:26:36.033Z,1003.52
2023-05-17T03:27:07.435Z,1003.52
2023-05-17T03:27:34.558Z,1003.52
2023-05-17T03:27:55.379Z,1003.52
2023-05-17T03:28:27.457Z,1003.52
2023-05-17T03:29:00.565Z,1003.42
2023-05-17T03:29:31.471Z,1003.42
2023-05-17T03:30:04.447Z,1003.52
2023-05-17T03:30:34.531Z,1003.52
2023-05-17T03:30:51.399Z,1003.52
2023-05-17T03:31:23.359Z,1003.52
2023-05-17T03:31:40.593Z,1003.42
2023-05-17T03:32:12.555Z,1003.42
2023-05-17T03:32:34.495Z,1003.62
2023-05-17T03:32:59.458Z,1003.62
2023-05-17T03:33:31.377Z,1003.62
2023-05-17T03:34:03.465Z,1003.72
2023-05-17T03:34:35.445Z,1003.62
2023-05-17T03:34:51.400Z,1003.62
2023-05-17T03:35:24.569Z,1003.62
2023-05-17T03:35:41.360Z,1003.72
2023-05-17T03:36:11.366Z,1003.72
2023-05-17T03:36:34.742Z,1003.72
2023-05-17T03:36:59.375Z,1003.72
2023-05-17T03:37:32.251Z,1003.72
2023-05-17T03:38:03.382Z,1003.72
2023-05-17T03:38:36.493Z,1003.72
2023-05-17T03:39:07.385Z,1003.72
2023-05-17T03:39:34.489Z,1003.52
2023-05-17T03:39:55.412Z,1003.52
2023-05-17T03:40:27.411Z,1003.52
2023-05-17T03:41:00.707Z,1003.72
2023-05-17T03:41:31.347Z,1003.72
2023-05-17T03:42:04.232Z,1003.62
2023-05-17T03:42:34.648Z,1003.83
2023-05-17T03:42:51.632Z,1003.83
2023-05-17T03:43:23.871Z,1003.83
2023-05-17T03:43:40.628Z,1003.62
2023-05-17T03:44:12.592Z,1003.62
2023-05-17T03:44:35.038Z,1003.62
2023-05-17T03:44:59.650Z,1003.62
2023-05-17T03:45:31.453Z,1003.62
2023-05-17T03:46:03.455Z,1003.62
2023-05-17T03:46:34.764Z,1003.72
2023-05-17T03:46:51.306Z,1003.72
2023-05-17T03:47:24.701Z,1003.72
2023-05-17T03:47:41.668Z,1003.83
2023-05-17T03:48:11.406Z,1003.83
2023-05-17T03:48:36.352Z,1003.52
2023-05-17T03:48:59.612Z,1003.52
2023-05-17T03:49:32.447Z,1003.52
2023-05-17T03:50:03.507Z,1003.52
2023-05-17T03:50:35.910Z,1003.62
2023-05-17T03:51:07.649Z,1003.62
2023-05-17T03:51:34.517Z,1003.52
2023-05-17T03:51:55.411Z,1003.52
2023-05-17T03:52:27.509Z,1003.52
2023-05-17T03:53:00.809Z,1003.72
2023-05-17T03:53:31.401Z,1003.72
2023-05-17T03:54:05.367Z,1003.83
2023-05-17T03:54:34.478Z,1003.72
2023-05-17T03:54:51.424Z,1003.72
2023-05-17T03:55:23.578Z,1003.72
2023-05-17T03:55:40.741Z,1003.72
2023-05-17T03:56:12.718Z,1003.72
2023-05-17T03:56:35.102Z,1003.62
2023-05-17T03:56:59.367Z,1003.62
2023-05-17T03:57:31.398Z,1003.62
2023-05-17T03:58:03.420Z,1003.62
2023-05-17T03:58:35.176Z,1003.52
2023-05-17T03:59:07.433Z,1003.52
2023-05-17T03:59:34.562Z,1003.52
2023-05-17T03:59:55.443Z,1003.52
2023-05-17T04:00:28.356Z,1003.52
2023-05-17T04:00:59.343Z,1003.83
2023-05-17T04:01:32.294Z,1003.83
2023-05-17T04:02:03.417Z,1003.72
2023-05-17T04:02:35.437Z,1003.72
2023-05-17T04:03:07.532Z,1003.72
2023-05-17T04:03:34.571Z,1003.72
2023-05-17T04:03:55.383Z,1003.72
2023-05-17T04:04:27.528Z,1003.72
2023-05-17T04:05:00.991Z,1003.62
2023-05-17T04:05:31.569Z,1003.62
2023-05-17T04:06:04.315Z,1003.93
2023-05-17T04:06:34.584Z,1003.72
2023-05-17T04:06:51.472Z,1003.72
2023-05-17T04:07:23.408Z,1003.72
2023-05-17T04:07:40.574Z,1003.72
2023-05-17T04:08:12.649Z,1003.72
2023-05-17T04:08:34.616Z,1003.52
2023-05-17T04:08:59.501Z,1003.52
2023-05-17T04:09:31.462Z,1003.52
2023-05-17T04:10:04.434Z,1003.62
2023-05-17T04:10:34.523Z,1003.93
2023-05-17T04:10:51.600Z,1003.93
2023-05-17T04:11:24.567Z,1003.93
2023-05-17T04:11:41.366Z,1003.72
2023-05-17T04:12:11.547Z,1003.72
2023-05-17T04:12:34.566Z,1003.62
2023-05-17T04:12:59.468Z,1003.62
2023-05-17T04:13:32.957Z,1003.62
2023-05-17T04:14:03.469Z,1003.72
2023-05-17T04:14:36.445Z,1003.83
2023-05-17T04:15:07.464Z,1003.83
2023-05-17T04:15:34.658Z,1003.93
2023-05-17T04:15:55.384Z,1003.93
2023-05-17T04:16:27.537Z,1003.93
2023-05-17T04:17:00.800Z,1003.83
2023-05-17T04:17:31.462Z,1003.83
2023-05-17T04:18:04.320Z,1003.83
2023-05-17T04:18:34.705Z,1004.03
2023-05-17T04:18:51.516Z,1004.03
2023-05-17T04:19:23.491Z,1004.03
2023-05-17T04:19:40.682Z,1003.93
2023-05-17T04:20:12.567Z,1003.93
2023-05-17T04:20:35.059Z,1003.93
2023-05-17T04:20:59.401Z,1003.93
2023-05-17T04:21:31.366Z,1003.93
2023-05-17T04:22:03.391Z,1003.72
2023-05-17T04:22:35.006Z,1003.62
2023-05-17T04:23:07.489Z,1003.62
2023-05-17T04:23:35.451Z,1003.72
2023-05-17T04:23:55.475Z,1003.72
2023-05-17T04:24:28.468Z,1003.72
2023-05-17T04:24:59.394Z,1003.62
2023-05-17T04:25:32.241Z,1003.62
2023-05-17T04:26:03.532Z,1004.03
2023-05-17T04:26:35.521Z,1003.93
2023-05-17T04:27:07.487Z,1003.93
2023-05-17T04:27:34.720Z,1003.93
2023-05-17T04:27:56.429Z,1003.93
2023-05-17T04:28:27.465Z,1003.93
2023-05-17T04:29:00.849Z,1004.13
2023-05-17T04:29:31.348Z,1004.13
2023-05-17T04:30:04.564Z,1004.03
2023-05-17T04:30:34.561Z,1003.72
2023-05-17T04:31:06.759Z,1003.72
2023-05-17T04:31:24.559Z,1003.72
2023-05-17T04:31:41.335Z,1004.03
2023-05-17T04:32:11.342Z,1004.03
2023-05-17T04:32:34.937Z,1003.83
2023-05-17T04:33:00.152Z,1003.83
2023-05-17T04:33:32.333Z,1003.83
2023-05-17T04:34:03.615Z,1003.93
2023-05-17T04:34:35.764Z,1004.03
2023-05-17T04:35:07.926Z,1004.03
2023-05-17T04:35:34.496Z,1004.03
2023-05-17T04:35:55.404Z,1004.03
2023-05-17T04:36:27.491Z,1004.03
2023-05-17T04:37:00.631Z,1004.03
2023-05-17T04:37:31.923Z,1004.03
2023-05-17T04:38:04.198Z,1004.03
2023-05-17T04:38:35.182Z,1004.33
2023-05-17T04:39:08.596Z,1004.33
2023-05-17T04:39:35.130Z,1004.03
2023-05-17T04:39:55.451Z,1004.03
2023-05-17T04:40:27.418Z,1004.03
2023-05-17T04:40:59.388Z,1004.13
2023-05-17T04:41:31.402Z,1004.13
2023-05-17T04:42:03.396Z,1004.13
2023-05-17T04:42:34.549Z,1004.23
2023-05-17T04:42:51.428Z,1004.23
2023-05-17T04:43:24.669Z,1004.23
2023-05-17T04:43:41.525Z,1003.83
2023-05-17T04:44:11.405Z,1003.83
2023-05-17T04:44:34.905Z,1004.03
2023-05-17T04:44:59.450Z,1004.03
2023-05-17T04:45:33.374Z,1004.03
2023-05-17T04:46:03.418Z,1004.03
2023-05-17T04:46:35.638Z,1004.13
2023-05-17T04:47:07.376Z,1004.13
2023-05-17T04:47:34.697Z,1004.13
2023-05-17T04:47:55.495Z,1004.13
2023-05-17T04:48:28.512Z,1004.13
2023-05-17T04:49:00.835Z,1004.03
2023-05-17T04:49:31.352Z,1004.03
2023-05-17T04:50:04.418Z,1004.13
2023-05-17T04:50:34.558Z,1004.23
2023-05-17T04:50:51.193Z,1004.23
2023-05-17T04:51:23.425Z,1004.23
2023-05-17T04:51:40.596Z,1004.13
2023-05-17T04:52:12.681Z,1004.13
2023-05-17T04:52:34.589Z,1004.03
2023-05-17T04:52:59.334Z,1004.03
2023-05-17T04:53:31.416Z,1004.03
2023-05-17T04:54:03.395Z,1004.23
2023-05-17T04:54:37.206Z,1004.03
2023-05-17T04:55:07.397Z,1004.03
2023-05-17T04:55:34.684Z,1004.13
2023-05-17T04:55:55.371Z,1004.13
2023-05-17T04:56:28.330Z,1004.13
2023-05-17T04:56:59.445Z,1004.13
2023-05-17T04:57:32.327Z,1004.13
2023-05-17T04:58:03.381Z,1004.03
2023-05-17T04:58:35.276Z,1004.44
2023-05-17T04:59:07.621Z,1004.44
2023-05-17T04:59:35.466Z,1004.23
2023-05-17T04:59:55.544Z,1004.23
2023-05-17T05:00:27.876Z,1004.23
2023-05-17T05:01:00.740Z,1004.33
2023-05-17T05:01:31.453Z,1004.33
2023-05-17T05:02:04.546Z,1004.33
2023-05-17T05:02:34.561Z,1004.23
2023-05-17T05:02:51.688Z,1004.23
2023-05-17T05:03:23.473Z,1004.23
2023-05-17T05:03:40.771Z,1004.44
2023-05-17T05:04:13.313Z,1004.44
2023-05-17T05:04:35.326Z,1004.33
2023-05-17T05:04:59.369Z,1004.33
2023-05-17T05:05:31.414Z,1004.33
2023-05-17T05:06:03.313Z,1004.33
2023-05-17T05:06:34.542Z,1004.13
2023-05-17T05:06:51.406Z,1004.13
2023-05-17T05:07:24.782Z,1004.13
2023-05-17T05:07:41.717Z,1004.23
2023-05-17T05:08:11.320Z,1004.23
2023-05-17T05:08:34.627Z,1004.44
2023-05-17T05:08:59.538Z,1004.44
2023-05-17T05:09:32.238Z,1004.44
2023-05-17T05:10:03.499Z,1004.23
2023-05-17T05:10:35.392Z,1004.54
2023-05-17T05:11:07.389Z,1004.54
2023-05-17T05:11:34.518Z,1004.54
2023-05-17T05:11:55.430Z,1004.54
2023-05-17T05:12:27.418Z,1004.54
2023-05-17T05:13:00.814Z,1004.44
2023-05-17T05:13:31.397Z,1004.44
2023-05-17T05:14:04.570Z,1004.64
2023-05-17T05:14:34.517Z,1004.33
2023-05-17T05:14:51.457Z,1004.33
2023-05-17T05:15:23.486Z,1004.33
2023-05-17T05:15:40.501Z,1004.23
2023-05-17T05:16:12.622Z,1004.23
2023-05-17T05:16:34.509Z,1004.33
2023-05-17T05:16:59.442Z,1004.33
2023-05-17T05:17:31.477Z,1004.33
2023-05-17T05:18:03.581Z,1004.54
2023-05-17T05:18:34.611Z,1004.44
2023-05-17T05:18:51.583Z,1004.44
2023-05-17T05:19:24.641Z,1004.44
2023-05-17T05:19:41.554Z,1004.44
2023-05-17T05:20:11.389Z,1004.44
2023-05-17T05:20:34.590Z,1004.64
2023-05-17T05:20:59.359Z,1004.64
2023-05-17T05:21:32.254Z,1004.64
2023-05-17T05:22:03.334Z,1004.64
2023-05-17T05:22:35.277Z,1004.54
2023-05-17T05:23:07.398Z,1004.54
2023-05-17T05:23:34.511Z,1004.44
2023-05-17T05:23:55.357Z,1004.44
2023-05-17T05:24:27.351Z,1004.44
2023-05-17T05:25:01.175Z,1004.64
2023-05-17T05:25:31.494Z,1004.64
2023-05-17T05:26:05.223Z,1004.74
2023-05-17T05:26:35.060Z,1004.64
2023-05-17T05:27:08.483Z,1004.64
2023-05-17T05:27:34.533Z,1004.54
2023-05-17T05:27:55.386Z,1004.54
2023-05-17T05:28:27.513Z,1004.54
2023-05-17T05:28:59.433Z,1004.74
2023-05-17T05:29:31.449Z,1004.74
2023-05-17T05:30:03.429Z,1004.54
2023-05-17T05:30:34.559Z,1004.64
2023-05-17T05:30:51.474Z,1004.64
2023-05-17T05:31:24.552Z,1004.64
2023-05-17T05:31:41.384Z,1004.74
2023-05-17T05:32:11.386Z,1004.74
2023-05-17T05:32:34.677Z,1004.64
2023-05-17T05:32:59.431Z,1004.64
2023-05-17T05:33:32.330Z,1004.64
2023-05-17T05:34:03.583Z,1004.74
2023-05-17T05:34:38.414Z,1004.33
2023-05-17T05:35:07.521Z,1004.33
2023-05-17T05:35:34.978Z,1004.84
2023-05-17T05:35:55.430Z,1004.84
2023-05-17T05:36:27.361Z,1004.84
2023-05-17T05:37:00.585Z,1004.84
2023-05-17T05:37:31.396Z,1004.84
2023-05-17T05:38:04.448Z,1004.74
2023-05-17T05:38:34.616Z,1004.64
2023-05-17T05:38:51.127Z,1004.64
2023-05-17T05:39:24.613Z,1004.64
2023-05-17T05:39:41.579Z,1004.84
2023-05-17T05:40:11.306Z,1004.84
2023-05-17T05:40:34.631Z,1004.74
2023-05-17T05:40:59.394Z,1004.74
2023-05-17T05:41:32.163Z,1004.74
2023-05-17T05:42:03.435Z,1004.84
2023-05-17T05:42:35.387Z,1004.84
2023-05-17T05:43:07.388Z,1004.84
2023-05-17T05:43:34.661Z,1004.84
2023-05-17T05:43:55.360Z,1004.84
2023-05-17T05:44:27.361Z,1004.84
2023-05-17T05:45:01.694Z,1004.54
2023-05-17T05:45:31.419Z,1004.54
2023-05-17T05:46:04.234Z,1004.91
2023-05-17T05:46:34.581Z,1004.74
2023-05-17T05:46:51.473Z,1004.74
2023-05-17T05:47:23.637Z,1004.74
2023-05-17T05:47:40.797Z,1004.74